Latest Weather Observations for Mount Nowa Nowa

IDV60801

Issued at 10:31 pm EDT Thursday 5 March 2015 (issued every 30 minutes, with the page automatically refreshed every 10 minutes)

About weather observations | Map of weather stations | Latest weather observations for VIC | Other Formats
Station Details ID: 084144 Name: MOUNT NOWA NOWA Lat: -37.69 Lon: 148.09 Height: 350.0 m
Data from the previous 72 hours. | See also: Recent months at Mount Nowa Nowa
Date/Time
EDT
Temp
°C
App
Temp
°C
Dew
Point
Rel
Hum
%
Delta-T
°C
Wind Press
QNH
hPa
Press
MSL
hPa
Rain
since 9 am
mm
Dir
 
Spd
km/h
Gust
km/h
Spd
kts
Gust
kts
05/10:30pm 11.1 8.1 4.3 63 3.1 W 9 11 5 6 - - 0.2
05/10:00pm 11.6 8.3 4.3 61 3.4 W 11 20 6 11 - - 0.2
05/09:30pm 12.0 8.6 4.2 59 3.6 W 11 24 6 13 - - 0.2
05/09:00pm 12.1 8.3 3.9 57 3.7 W 13 24 7 13 - - 0.2
05/08:30pm 12.5 8.2 3.2 53 4.2 WSW 15 26 8 14 - - 0.2
05/08:00pm 12.8 8.5 3.2 52 4.3 W 15 32 8 17 - - 0.2
05/07:30pm 13.3 9.5 3.7 52 4.4 WSW 13 24 7 13 - - 0.2
05/07:00pm 14.2 9.9 3.1 47 5.1 W 15 30 8 16 - - 0.2
05/06:30pm 15.4 11.3 4.2 47 5.3 WSW 15 30 8 16 - - 0.2
05/06:00pm 16.5 12.6 3.2 41 6.2 W 13 24 7 13 - - 0.2
05/05:30pm 16.3 11.1 2.7 40 6.3 W 19 39 10 21 - - 0.2
05/05:00pm 16.0 11.3 3.4 43 5.9 WSW 17 37 9 20 - - 0.2
05/04:30pm 16.6 12.4 4.0 43 6.0 WSW 15 32 8 17 - - 0.2
05/04:00pm 15.8 12.5 4.8 48 5.3 W 11 24 6 13 - - 0.2
05/03:30pm 16.7 12.6 4.4 44 5.9 W 15 32 8 17 - - 0.2
05/03:00pm 16.3 11.8 4.4 45 5.7 W 17 37 9 20 - - 0.2
05/02:30pm 15.9 11.3 5.5 50 5.1 W 19 44 10 24 - - 0.2
05/02:00pm 15.5 10.4 3.9 46 5.5 WSW 20 41 11 22 - - 0.2
05/01:30pm 14.5 10.7 5.8 56 4.2 WSW 15 30 8 16 - - 0.2
05/01:00pm 14.2 10.0 5.6 56 4.1 WSW 17 39 9 21 - - 0.2
05/12:30pm 12.1 7.5 5.5 64 3.1 WSW 19 41 10 22 - - 0.2
05/12:00pm 13.2 9.0 5.9 61 3.5 WSW 17 39 9 21 - - 0.0
05/11:30am 12.4 7.2 5.3 62 3.4 WSW 22 39 12 21 - - 0.0
05/11:16am 12.2 5.7 4.7 60 3.5 W 28 46 15 25 - - 0.0
05/11:00am 12.3 7.4 5.0 61 3.4 WSW 20 46 11 25 - - 0.0
05/10:30am 11.7 4.7 4.2 60 3.4 W 30 54 16 29 - - 0.0
05/10:02am 11.5 5.0 4.5 62 3.2 WSW 28 54 15 29 - - 0.0
05/10:00am 11.5 5.7 4.3 61 3.3 WSW 24 52 13 28 - - 0.0
05/09:30am 11.3 6.4 5.0 65 2.9 W 20 46 11 25 - - 0.0
05/09:00am 10.7 4.2 4.6 66 2.8 WSW 28 50 15 27 - - 1.2
05/08:55am 10.7 4.2 4.6 66 2.8 W 28 50 15 27 - - 1.2
05/08:30am 10.4 4.7 5.0 69 2.5 W 24 44 13 24 - - 1.2
05/08:00am 10.1 3.8 5.7 74 2.1 WSW 28 52 15 28 - - 1.2
05/07:46am 10.0 3.8 6.2 77 1.8 WSW 28 52 15 28 - - 1.2
05/07:30am 10.0 4.3 6.7 80 1.6 W 26 43 14 23 - - 1.2
05/07:13am 10.0 4.1 7.3 83 1.3 W 28 57 15 31 - - 1.2
05/07:00am 9.8 4.8 7.9 88 0.9 W 24 59 13 32 - - 1.2
05/06:30am 9.6 3.8 8.0 90 0.8 WSW 28 52 15 28 - - 1.2
05/06:00am 9.7 4.1 8.9 95 0.4 WSW 28 61 15 33 - - 1.2
05/05:41am 11.3 6.0 10.0 92 0.7 W 28 61 15 33 - - 0.6
05/05:30am 13.2 9.6 10.6 84 1.4 WSW 20 44 11 24 - - 0.0
05/05:00am 14.6 11.3 9.4 71 2.7 W 17 26 9 14 - - 0.0
05/04:30am 13.8 11.3 9.6 76 2.2 W 13 19 7 10 - - 0.0
05/04:00am 13.7 11.3 9.9 78 2.0 W 13 17 7 9 - - 0.0
05/03:30am 13.6 12.5 10.6 82 1.6 WNW 7 17 4 9 - - 0.0
05/03:00am 13.5 12.6 10.7 83 1.5 WNW 6 9 3 5 - - 0.0
05/02:30am 14.2 13.6 10.4 78 2.0 WNW 4 6 2 3 - - 0.0
05/02:00am 14.1 13.5 10.3 78 2.0 WNW 4 7 2 4 - - 0.0
05/01:30am 14.5 13.5 10.3 76 2.2 NW 6 7 3 4 - - 0.0
05/01:00am 14.8 13.2 10.2 74 2.4 NNW 9 13 5 7 - - 0.0
05/12:30am 15.1 13.9 10.3 73 2.6 N 7 9 4 5 - - 0.0
05/12:00am 15.2 14.1 10.0 71 2.8 NNE 6 9 3 5 - - 0.0
 
Date/Time
EDT
Temp
°C
App
Temp
°C
Dew
Point
Rel
Hum
%
Delta-T
°C
Wind Press
QNH
hPa
Press
MSL
hPa
Rain
since 9 am
mm
Dir
 
Spd
km/h
Gust
km/h
Spd
kts
Gust
kts
04/11:30pm 14.4 13.0 9.0 70 2.8 ENE 6 7 3 4 - - 0.0
04/11:00pm 14.3 12.9 9.5 73 2.5 ENE 7 11 4 6 - - 0.0
04/10:30pm 14.7 12.9 9.3 70 2.8 ENE 9 15 5 8 - - 0.0
04/10:00pm 14.5 12.8 9.7 73 2.5 ENE 9 15 5 8 - - 0.0
04/09:30pm 14.1 12.5 10.3 78 2.0 ENE 9 15 5 8 - - 0.0
04/09:00pm 14.1 12.6 10.5 79 1.9 E 9 15 5 8 - - 0.0
04/08:30pm 14.0 12.5 10.6 80 1.8 E 9 15 5 8 - - 0.0
04/08:00pm 14.6 13.4 10.4 76 2.2 ESE 7 9 4 5 - - 0.0
04/07:30pm 15.5 14.3 10.3 71 2.8 ESE 7 15 4 8 - - 0.0
04/07:00pm 16.8 15.8 10.9 68 3.2 SE 7 17 4 9 - - 0.0
04/06:30pm 18.9 18.2 11.5 62 4.1 SE 6 13 3 7 - - 0.0
04/06:00pm 19.4 18.9 11.9 62 4.2 SSE 6 11 3 6 - - 0.0
04/05:30pm 20.6 20.7 12.6 60 4.6 ESE 4 9 2 5 - - 0.0
04/05:00pm 20.2 19.7 11.9 59 4.7 SE 6 11 3 6 - - 0.0
04/04:30pm 20.6 20.1 12.6 60 4.6 SE 7 15 4 8 - - 0.0
04/04:00pm 21.4 21.5 12.8 58 5.0 SE 4 13 2 7 - - 0.0
04/03:30pm 20.7 20.7 12.4 59 4.7 SSW 4 11 2 6 - - 0.0
04/03:00pm 20.2 19.8 12.4 61 4.5 SSW 6 9 3 5 - - 0.0
04/02:30pm 19.7 19.3 12.5 63 4.1 S 6 13 3 7 - - 0.0
04/02:00pm 19.6 18.5 11.9 61 4.3 SSE 9 17 5 9 - - 0.0
04/01:30pm 20.9 20.6 13.4 62 4.4 SE 7 13 4 7 - - 0.0
04/01:00pm 20.7 20.4 12.7 60 4.6 S 6 9 3 5 - - 0.0
04/12:30pm 20.0 19.6 12.3 61 4.4 WSW 6 9 3 5 - - 0.0
04/12:00pm 19.2 19.3 12.7 66 3.7 SW 4 9 2 5 - - 0.0
04/11:30am 18.9 19.3 12.4 66 3.7 WSW 2 6 1 3 - - 0.0
04/11:00am 18.6 18.1 12.1 66 3.7 N 6 11 3 6 - - 0.0
04/10:30am 17.0 16.8 11.9 72 2.8 NW 4 7 2 4 - - 0.0
04/10:00am 15.4 15.3 12.0 80 1.9 W 4 7 2 4 - - 0.0
04/09:30am 13.5 13.0 11.9 90 0.9 W 6 7 3 4 - - 0.0
04/09:00am 12.6 11.8 11.0 90 0.9 W 6 7 3 4 - - 0.0
04/08:30am 12.7 11.6 10.8 88 1.0 W 7 13 4 7 - - 0.0
04/08:00am 12.9 11.8 10.6 86 1.2 W 7 13 4 7 - - 0.0
04/07:30am 13.1 12.0 10.6 85 1.3 W 7 11 4 6 - - 0.0
04/07:00am 13.0 12.3 10.2 83 1.5 W 4 6 2 3 - - 0.0
04/06:30am 13.5 12.7 9.7 78 2.0 W 4 6 2 3 - - 0.0
04/06:00am 13.5 13.1 9.9 79 1.9 WNW 2 4 1 2 - - 0.0
04/05:30am 13.5 13.4 10.9 84 1.4 WNW 2 4 1 2 - - 0.0
04/05:00am 13.2 12.8 11.1 87 1.1 NW 4 6 2 3 - - 0.0
04/04:30am 13.2 12.7 10.9 86 1.2 NW 4 6 2 3 - - 0.0
04/04:00am 13.5 13.7 10.5 82 1.6 CALM 0 6 0 3 - - 0.0
04/03:30am 14.1 14.0 9.3 73 2.5 CALM 0 0 0 0 - - 0.0
04/03:00am 14.2 14.0 9.0 71 2.7 CALM 0 0 0 0 - - 0.0
04/02:30am 14.2 14.1 9.6 74 2.4 CALM 0 0 0 0 - - 0.0
04/02:00am 14.2 13.8 9.8 75 2.3 E 2 2 1 1 - - 0.0
04/01:30am 14.4 14.3 9.6 73 2.5 CALM 0 2 0 1 - - 0.0
04/01:00am 14.6 14.7 10.0 74 2.4 CALM 0 2 0 1 - - 0.0
04/12:30am 14.5 14.3 11.8 84 1.5 ESE 4 6 2 3 - - 0.0
04/12:00am 14.3 14.1 11.8 85 1.4 ESE 4 4 2 2 - - 0.0
 
Date/Time
EDT
Temp
°C
App
Temp
°C
Dew
Point
Rel
Hum
%
Delta-T
°C
Wind Press
QNH
hPa
Press
MSL
hPa
Rain
since 9 am
mm
Dir
 
Spd
km/h
Gust
km/h
Spd
kts
Gust
kts
03/11:30pm 14.0 13.8 11.9 87 1.1 ESE 4 6 2 3 - - 0.0
03/11:00pm 13.8 13.2 11.7 87 1.1 ESE 6 7 3 4 - - 0.0
03/10:30pm 13.7 13.0 11.4 86 1.2 ESE 6 9 3 5 - - 0.0
03/10:00pm 13.6 12.9 11.3 86 1.2 ESE 6 7 3 4 - - 0.0
03/09:30pm 13.8 13.1 11.3 85 1.4 ESE 6 9 3 5 - - 0.0
03/09:00pm 14.1 13.2 11.4 84 1.5 E 7 9 4 5 - - 0.0
03/08:30pm 14.4 13.6 11.6 83 1.5 ESE 7 11 4 6 - - 0.0
03/08:00pm 14.7 14.3 11.1 79 1.9 ESE 4 6 2 3 - - 0.0
03/07:30pm 15.6 15.4 11.8 78 2.1 ESE 4 6 2 3 - - 0.0
03/07:00pm 16.7 16.2 12.0 74 2.6 ESE 6 9 3 5 - - 0.0
03/06:30pm 17.6 17.6 12.3 71 3.0 SE 4 13 2 7 - - 0.0
03/06:00pm 18.1 17.7 12.5 70 3.2 SE 6 11 3 6 - - 0.0
03/05:30pm 18.8 18.4 12.5 67 3.6 ESE 6 13 3 7 - - 0.0
03/05:00pm 19.0 18.8 13.0 68 3.4 SE 6 17 3 9 - - 0.0
03/04:30pm 18.7 18.3 12.9 69 3.3 SE 7 15 4 8 - - 0.0
03/04:00pm 18.9 18.5 13.1 69 3.3 SE 7 15 4 8 - - 0.0
03/03:30pm 19.4 19.4 13.6 69 3.4 SE 6 9 3 5 - - 0.0
03/03:00pm 18.5 18.3 13.6 73 2.8 SSE 7 15 4 8 - - 0.0
03/02:30pm 17.9 17.5 14.2 79 2.2 SSE 9 19 5 10 - - 0.0
03/02:00pm 18.1 18.4 14.4 79 2.2 S 6 11 3 6 - - 0.0
03/01:30pm 18.7 18.4 14.4 76 2.5 SSE 9 19 5 10 - - 0.0
03/01:00pm 19.6 20.0 13.8 69 3.4 SSE 4 13 2 7 - - 0.0
03/12:30pm 19.3 18.7 10.3 56 4.9 SSW 4 9 2 5 - - 0.0
03/12:00pm 18.7 18.5 11.8 64 3.9 SW 4 7 2 4 - - 0.0
03/11:30am 18.5 18.2 11.6 64 3.8 WSW 4 7 2 4 - - 0.0
03/11:00am 17.9 18.1 13.2 74 2.7 WNW 4 7 2 4 - - 0.0
03/10:30am 16.1 16.0 12.1 77 2.2 W 4 6 2 3 - - 0.0
03/10:00am 15.5 15.5 12.3 81 1.8 WNW 4 6 2 3 - - 0.0
03/09:30am 15.0 14.8 11.8 81 1.8 WNW 4 7 2 4 - - 0.0
03/09:00am 14.9 14.8 12.0 83 1.6 W 4 7 2 4 - - 0.0
03/08:30am 14.7 14.0 12.0 84 1.5 W 7 11 4 6 - - 0.0
03/08:00am 14.3 13.8 12.5 89 1.0 W 7 11 4 6 - - 0.0
03/07:30am 13.7 13.4 12.6 93 0.6 W 6 9 3 5 - - 0.0
03/07:00am 13.7 13.7 12.3 91 0.8 WNW 4 6 2 3 - - 0.0
03/06:30am 14.2 14.0 12.9 92 0.7 W 6 7 3 4 - - 0.0
03/06:00am 14.3 13.8 12.5 89 1.0 W 7 11 4 6 - - 0.0
03/05:30am 14.7 14.1 12.2 85 1.4 W 7 13 4 7 - - 0.0
03/05:00am 14.8 14.4 12.3 85 1.4 W 6 9 3 5 - - 0.0
03/04:30am 15.5 15.8 12.1 80 1.9 NW 2 4 1 2 - - 0.0
03/04:00am 15.4 15.6 12.0 80 1.9 NW 2 6 1 3 - - 0.0
03/03:30am 15.7 15.7 11.3 75 2.4 WNW 2 4 1 2 - - 0.0
03/03:00am 16.1 16.3 11.7 75 2.4 W 2 4 1 2 - - 0.0
03/02:30am 16.3 16.0 11.5 73 2.6 WSW 4 6 2 3 - - 0.0
03/02:00am 16.5 16.7 11.9 74 2.6 NW 2 4 1 2 - - 0.0
03/01:30am 16.6 16.8 12.0 74 2.6 NW 2 6 1 3 - - 0.0
03/01:00am 16.9 16.7 10.5 66 3.5 S 2 4 1 2 - - 0.0
03/12:30am 16.3 15.8 12.1 76 2.3 NW 6 13 3 7 - - 0.0
03/12:00am 17.0 16.7 10.1 64 3.7 W 2 7 1 4 - - 0.0
 
Date/Time
EDT
Temp
°C
App
Temp
°C
Dew
Point
Rel
Hum
%
Delta-T
°C
Wind Press
QNH
hPa
Press
MSL
hPa
Rain
since 9 am
mm
Dir
 
Spd
km/h
Gust
km/h
Spd
kts
Gust
kts
02/11:30pm 16.1 16.0 12.1 77 2.2 WNW 4 6 2 3 - - 0.0
02/11:00pm 16.6 16.3 11.5 72 2.8 W 4 7 2 4 - - 0.0

Other Formats:

Comma delimited format used in spreadsheet applications
http://www.bom.gov.au/fwo/IDV60801/IDV60801.94930.axf

JavaScript Object Notation format (JSON) in row-major order
http://www.bom.gov.au/fwo/IDV60801/IDV60801.94930.json